Airfield :
LOGIN :

Register | Disclaimer

   EN    FR    IT 

 










Legend :    VFR   Marginal VFR   IFR   Intensive IFR   Very Intensive IFR
Visi :
Ceiling :
>= 8 km
>= 3000ft
5 to 8 km
1000 to 3000 ft
1500m to 5 km
500 to 1000 ft
800 to 1500m
200 to 500 ft
< 800m
< 200 ft
Symbols :   Thunderstorms  Fog  Heavy snow  Heavy precipitations  Wind > 20 kt
SIGMETs :     Misc.  Thunderstorms  Icing  Turbulence  Mountain Waves  Volcanic Ashes






- Airport Elevation : 1455 ft


ETIH - Hohenfels Army Air Field

CURRENT METAR :
  • 281356Z AUTO 28012G36KT 2800 +RA FEW003 BKN014 02/M01 A2955 RMK AO2 PK WND 28036/46 VIS 2400V9999 RAB47 CIG 014V048 SLP025 P0000 T00221007 $

EXPIRED METARs :
  • 281256Z AUTO 25014G22KT 9999 FEW024 FEW031 SCT049 04/01 A2949 RMK AO2 RAB43E54 SLP002 P0000 T00420005 $
  • 281243Z AUTO 22011G19KT 9999 -RA FEW025 SCT031 SCT047 BKN055 04/01 A2952 RMK AO2 RAB43 SLP012 $
  • 281221Z AUTO 23006KT 9999 SCT018 SCT023 04/01 A2950 RMK AO2 SLP005 $
  • 281206Z AUTO 24009G18KT 9999 BKN017 04/01 A2951 RMK AO2 BKN V SCT SLP009 $
  • 281156Z AUTO 22008KT 9999 SCT015 04/01 A2951 RMK AO2 PK WND 20047/05 RAB01E12RAB12E12RAB12E13RAB14E27DZB27E28 SLP009 P0007 60007 70019 T00360013 10066 20036 53002 $
  • 281133Z AUTO 24008G21KT 9999 SCT016 BKN060 04/01 A2950 RMK AO2 RAB01E12RAB12E12RAB12E13RAB14E27DZB27E28 SLP005 $
  • 281116Z AUTO 26017G47KT 9999 -RA FEW012 BKN018 OVC026 04/02 A2947 RMK AO2 WSHFT 02 LTG DSNT W RAB01E12RAB12E12RAB12E13RAB14 CIG 018V026 BKN V SCT SLP995 $
  • 281101Z AUTO 20015G20KT 9999 -RA BKN026 OVC034 07/03 A2945 RMK AO2 RAB01 SLP986 $
  • 281056Z AUTO 19012G18KT 9999 BKN026 OVC034 07/03 A2944 RMK AO2 SLP983 T00660029 $

Expired Forecast.



MET'MAP, your aeronautical weather chart ! - Copyright ORBIFLY December 2007 - Disclaimer

ORBIFLY MET'MAP TEAM :

Programming & Development : Alexandra Zaïnal
Concept & original design : Baudouin d'Aumeries
Assistance for programming : Marc-Olivier Méhu
Technical & hardware support : Manuel Goepfert

Contact : metmap@orbifly.com




SOURCES & CREDITS :

   NOAA